sensor_id;sensor_type;location;lat;lon;timestamp;P1;durP1;ratioP1;P2;durP2;ratioP2
3487;SDS011;38546;48.170;11.724;2023-10-31T00:00:30;3.40;;;3.10;;
3487;SDS011;38546;48.170;11.724;2023-10-31T00:03:19;2.90;;;2.70;;
3487;SDS011;38546;48.170;11.724;2023-10-31T00:06:08;3.60;;;2.50;;
3487;SDS011;38546;48.170;11.724;2023-10-31T00:08:58;2.20;;;2.10;;
3487;SDS011;38546;48.170;11.724;2023-10-31T00:11:47;1.90;;;1.67;;
3487;SDS011;38546;48.170;11.724;2023-10-31T00:14:36;1.93;;;1.83;;
3487;SDS011;38546;48.170;11.724;2023-10-31T00:17:25;1.87;;;1.73;;
3487;SDS011;38546;48.170;11.724;2023-10-31T00:20:15;1.60;;;1.60;;
3487;SDS011;38546;48.170;11.724;2023-10-31T00:23:04;1.07;;;1.07;;
3487;SDS011;38546;48.170;11.724;2023-10-31T00:25:53;1.20;;;1.20;;
3487;SDS011;38546;48.170;11.724;2023-10-31T00:28:43;1.10;;;1.10;;
3487;SDS011;38546;48.170;11.724;2023-10-31T00:31:32;1.00;;;1.00;;
3487;SDS011;38546;48.170;11.724;2023-10-31T00:34:23;0.90;;;0.90;;
3487;SDS011;38546;48.170;11.724;2023-10-31T00:37:13;1.03;;;1.03;;
3487;SDS011;38546;48.170;11.724;2023-10-31T00:40:02;1.20;;;1.10;;
3487;SDS011;38546;48.170;11.724;2023-10-31T00:42:52;0.73;;;0.73;;
3487;SDS011;38546;48.170;11.724;2023-10-31T00:45:42;0.70;;;0.70;;
3487;SDS011;38546;48.170;11.724;2023-10-31T00:48:32;0.80;;;0.80;;
3487;SDS011;38546;48.170;11.724;2023-10-31T00:51:24;0.73;;;0.73;;
3487;SDS011;38546;48.170;11.724;2023-10-31T00:54:14;0.60;;;0.60;;
3487;SDS011;38546;48.170;11.724;2023-10-31T00:57:03;0.77;;;0.77;;
3487;SDS011;38546;48.170;11.724;2023-10-31T00:59:53;0.70;;;0.70;;
3487;SDS011;38546;48.170;11.724;2023-10-31T01:02:42;0.80;;;0.80;;
3487;SDS011;38546;48.170;11.724;2023-10-31T01:05:31;0.80;;;0.80;;
3487;SDS011;38546;48.170;11.724;2023-10-31T01:08:20;0.83;;;0.83;;
3487;SDS011;38546;48.170;11.724;2023-10-31T01:11:10;0.60;;;0.60;;
3487;SDS011;38546;48.170;11.724;2023-10-31T01:13:59;0.70;;;0.70;;
3487;SDS011;38546;48.170;11.724;2023-10-31T01:16:48;0.70;;;0.70;;
3487;SDS011;38546;48.170;11.724;2023-10-31T01:19:37;0.80;;;0.80;;
3487;SDS011;38546;48.170;11.724;2023-10-31T01:22:27;0.77;;;0.77;;
3487;SDS011;38546;48.170;11.724;2023-10-31T01:25:16;0.73;;;0.73;;
3487;SDS011;38546;48.170;11.724;2023-10-31T01:28:05;0.57;;;0.57;;
3487;SDS011;38546;48.170;11.724;2023-10-31T01:30:54;0.57;;;0.57;;
3487;SDS011;38546;48.170;11.724;2023-10-31T01:33:44;0.60;;;0.60;;
3487;SDS011;38546;48.170;11.724;2023-10-31T01:36:34;0.70;;;0.70;;
3487;SDS011;38546;48.170;11.724;2023-10-31T01:39:24;0.73;;;0.73;;
3487;SDS011;38546;48.170;11.724;2023-10-31T01:42:13;0.50;;;0.50;;
3487;SDS011;38546;48.170;11.724;2023-10-31T01:45:04;0.53;;;0.53;;
3487;SDS011;38546;48.170;11.724;2023-10-31T01:47:55;0.80;;;0.80;;
3487;SDS011;38546;48.170;11.724;2023-10-31T01:50:44;0.60;;;0.60;;
3487;SDS011;38546;48.170;11.724;2023-10-31T01:53:33;2.50;;;0.80;;
3487;SDS011;38546;48.170;11.724;2023-10-31T01:56:24;1.17;;;0.60;;
3487;SDS011;38546;48.170;11.724;2023-10-31T01:59:14;0.67;;;0.67;;
3487;SDS011;38546;48.170;11.724;2023-10-31T02:02:04;0.60;;;0.60;;
3487;SDS011;38546;48.170;11.724;2023-10-31T02:04:54;0.63;;;0.63;;
3487;SDS011;38546;48.170;11.724;2023-10-31T02:07:44;0.77;;;0.77;;
3487;SDS011;38546;48.170;11.724;2023-10-31T02:10:35;3.40;;;0.80;;
3487;SDS011;38546;48.170;11.724;2023-10-31T02:13:24;1.07;;;1.07;;
3487;SDS011;38546;48.170;11.724;2023-10-31T02:16:13;0.93;;;0.93;;
3487;SDS011;38546;48.170;11.724;2023-10-31T02:19:02;1.00;;;1.00;;
3487;SDS011;38546;48.170;11.724;2023-10-31T02:21:52;0.60;;;0.60;;
3487;SDS011;38546;48.170;11.724;2023-10-31T02:24:42;0.60;;;0.60;;
3487;SDS011;38546;48.170;11.724;2023-10-31T02:27:32;0.60;;;0.60;;
3487;SDS011;38546;48.170;11.724;2023-10-31T02:30:21;0.50;;;0.50;;
3487;SDS011;38546;48.170;11.724;2023-10-31T02:33:11;1.00;;;0.73;;
3487;SDS011;38546;48.170;11.724;2023-10-31T02:36:00;0.70;;;0.70;;
3487;SDS011;38546;48.170;11.724;2023-10-31T02:38:50;0.50;;;0.50;;
3487;SDS011;38546;48.170;11.724;2023-10-31T02:41:39;0.40;;;0.40;;
3487;SDS011;38546;48.170;11.724;2023-10-31T02:44:29;0.73;;;0.53;;
3487;SDS011;38546;48.170;11.724;2023-10-31T02:47:18;3.03;;;0.50;;
3487;SDS011;38546;48.170;11.724;2023-10-31T02:50:08;1.60;;;0.60;;
3487;SDS011;38546;48.170;11.724;2023-10-31T02:52:58;0.50;;;0.50;;
3487;SDS011;38546;48.170;11.724;2023-10-31T02:55:47;0.50;;;0.50;;
3487;SDS011;38546;48.170;11.724;2023-10-31T02:58:36;0.50;;;0.40;;
3487;SDS011;38546;48.170;11.724;2023-10-31T03:01:28;0.50;;;0.50;;
3487;SDS011;38546;48.170;11.724;2023-10-31T03:04:17;1.00;;;1.00;;
3487;SDS011;38546;48.170;11.724;2023-10-31T03:07:07;0.47;;;0.47;;
3487;SDS011;38546;48.170;11.724;2023-10-31T03:09:56;0.50;;;0.50;;
3487;SDS011;38546;48.170;11.724;2023-10-31T03:12:45;0.67;;;0.67;;
3487;SDS011;38546;48.170;11.724;2023-10-31T03:15:34;0.40;;;0.40;;
3487;SDS011;38546;48.170;11.724;2023-10-31T03:18:23;0.57;;;0.57;;
3487;SDS011;38546;48.170;11.724;2023-10-31T03:21:12;1.03;;;0.70;;
3487;SDS011;38546;48.170;11.724;2023-10-31T03:24:04;0.30;;;0.30;;
3487;SDS011;38546;48.170;11.724;2023-10-31T03:26:54;0.43;;;0.43;;
3487;SDS011;38546;48.170;11.724;2023-10-31T03:29:43;0.40;;;0.40;;
3487;SDS011;38546;48.170;11.724;2023-10-31T03:32:33;0.40;;;0.40;;
3487;SDS011;38546;48.170;11.724;2023-10-31T03:35:22;0.60;;;0.60;;
3487;SDS011;38546;48.170;11.724;2023-10-31T03:38:11;0.60;;;0.50;;
3487;SDS011;38546;48.170;11.724;2023-10-31T03:41:01;0.50;;;0.50;;
3487;SDS011;38546;48.170;11.724;2023-10-31T03:43:50;0.53;;;0.53;;
3487;SDS011;38546;48.170;11.724;2023-10-31T03:46:40;0.93;;;0.50;;
3487;SDS011;38546;48.170;11.724;2023-10-31T03:49:29;0.60;;;0.60;;
3487;SDS011;38546;48.170;11.724;2023-10-31T03:52:19;0.50;;;0.47;;
3487;SDS011;38546;48.170;11.724;2023-10-31T03:55:08;0.67;;;0.63;;
3487;SDS011;38546;48.170;11.724;2023-10-31T03:57:58;0.60;;;0.60;;
3487;SDS011;38546;48.170;11.724;2023-10-31T04:00:47;2.50;;;1.00;;
3487;SDS011;38546;48.170;11.724;2023-10-31T04:03:37;0.50;;;0.50;;
3487;SDS011;38546;48.170;11.724;2023-10-31T04:06:26;1.43;;;0.77;;
3487;SDS011;38546;48.170;11.724;2023-10-31T04:09:15;0.60;;;0.60;;
3487;SDS011;38546;48.170;11.724;2023-10-31T04:12:06;0.60;;;0.60;;
3487;SDS011;38546;48.170;11.724;2023-10-31T04:14:56;1.27;;;0.80;;
3487;SDS011;38546;48.170;11.724;2023-10-31T04:17:46;0.80;;;0.80;;
3487;SDS011;38546;48.170;11.724;2023-10-31T04:20:36;0.60;;;0.60;;
3487;SDS011;38546;48.170;11.724;2023-10-31T04:23:25;1.27;;;0.50;;
3487;SDS011;38546;48.170;11.724;2023-10-31T04:26:14;1.77;;;0.90;;
3487;SDS011;38546;48.170;11.724;2023-10-31T04:29:04;1.20;;;1.10;;
3487;SDS011;38546;48.170;11.724;2023-10-31T04:31:53;0.90;;;0.90;;
3487;SDS011;38546;48.170;11.724;2023-10-31T04:34:43;1.47;;;1.20;;
3487;SDS011;38546;48.170;11.724;2023-10-31T04:37:32;0.97;;;0.97;;
3487;SDS011;38546;48.170;11.724;2023-10-31T04:40:22;0.63;;;0.63;;
3487;SDS011;38546;48.170;11.724;2023-10-31T04:43:12;1.30;;;0.90;;
3487;SDS011;38546;48.170;11.724;2023-10-31T04:46:01;0.80;;;0.80;;
3487;SDS011;38546;48.170;11.724;2023-10-31T04:48:51;1.53;;;1.17;;
3487;SDS011;38546;48.170;11.724;2023-10-31T04:51:40;1.20;;;0.90;;
3487;SDS011;38546;48.170;11.724;2023-10-31T04:54:30;2.20;;;0.83;;
3487;SDS011;38546;48.170;11.724;2023-10-31T04:57:19;0.90;;;0.90;;
3487;SDS011;38546;48.170;11.724;2023-10-31T05:00:09;1.03;;;0.93;;
3487;SDS011;38546;48.170;11.724;2023-10-31T05:03:00;4.20;;;2.40;;
3487;SDS011;38546;48.170;11.724;2023-10-31T05:05:51;1.37;;;1.17;;
3487;SDS011;38546;48.170;11.724;2023-10-31T05:08:40;1.30;;;1.20;;
3487;SDS011;38546;48.170;11.724;2023-10-31T05:11:30;1.30;;;1.20;;
3487;SDS011;38546;48.170;11.724;2023-10-31T05:14:19;5.23;;;1.20;;
3487;SDS011;38546;48.170;11.724;2023-10-31T05:17:08;1.43;;;0.90;;
3487;SDS011;38546;48.170;11.724;2023-10-31T05:19:57;1.03;;;1.00;;
3487;SDS011;38546;48.170;11.724;2023-10-31T05:22:47;0.93;;;0.93;;
3487;SDS011;38546;48.170;11.724;2023-10-31T05:25:36;1.90;;;1.10;;
3487;SDS011;38546;48.170;11.724;2023-10-31T05:28:26;1.10;;;1.10;;
3487;SDS011;38546;48.170;11.724;2023-10-31T05:31:15;1.30;;;1.30;;
3487;SDS011;38546;48.170;11.724;2023-10-31T05:34:06;1.70;;;1.60;;
3487;SDS011;38546;48.170;11.724;2023-10-31T05:36:55;2.30;;;1.60;;
3487;SDS011;38546;48.170;11.724;2023-10-31T05:39:45;1.20;;;1.20;;
3487;SDS011;38546;48.170;11.724;2023-10-31T05:42:34;1.33;;;1.20;;
3487;SDS011;38546;48.170;11.724;2023-10-31T05:45:23;1.60;;;1.13;;
3487;SDS011;38546;48.170;11.724;2023-10-31T05:48:13;1.40;;;1.30;;
3487;SDS011;38546;48.170;11.724;2023-10-31T05:51:03;1.40;;;1.30;;
3487;SDS011;38546;48.170;11.724;2023-10-31T05:53:53;1.17;;;1.17;;
3487;SDS011;38546;48.170;11.724;2023-10-31T05:56:42;1.43;;;1.33;;
3487;SDS011;38546;48.170;11.724;2023-10-31T05:59:33;1.80;;;1.40;;
3487;SDS011;38546;48.170;11.724;2023-10-31T06:02:22;1.47;;;1.47;;
3487;SDS011;38546;48.170;11.724;2023-10-31T06:05:12;1.47;;;1.20;;
3487;SDS011;38546;48.170;11.724;2023-10-31T06:08:01;1.73;;;1.63;;
3487;SDS011;38546;48.170;11.724;2023-10-31T06:10:51;1.40;;;1.30;;
3487;SDS011;38546;48.170;11.724;2023-10-31T06:13:40;2.30;;;1.63;;
3487;SDS011;38546;48.170;11.724;2023-10-31T06:16:29;2.93;;;1.87;;
3487;SDS011;38546;48.170;11.724;2023-10-31T06:19:19;5.57;;;1.87;;
3487;SDS011;38546;48.170;11.724;2023-10-31T06:22:09;2.70;;;1.07;;
3487;SDS011;38546;48.170;11.724;2023-10-31T06:24:57;1.60;;;1.50;;
3487;SDS011;38546;48.170;11.724;2023-10-31T06:27:46;1.33;;;1.33;;
3487;SDS011;38546;48.170;11.724;2023-10-31T06:30:36;2.47;;;1.37;;
3487;SDS011;38546;48.170;11.724;2023-10-31T06:33:25;3.50;;;2.13;;
3487;SDS011;38546;48.170;11.724;2023-10-31T06:36:14;3.73;;;1.93;;
3487;SDS011;38546;48.170;11.724;2023-10-31T06:39:03;1.53;;;1.53;;
3487;SDS011;38546;48.170;11.724;2023-10-31T06:41:55;2.03;;;1.77;;
3487;SDS011;38546;48.170;11.724;2023-10-31T06:44:44;2.53;;;1.70;;
3487;SDS011;38546;48.170;11.724;2023-10-31T06:47:33;2.40;;;1.40;;
3487;SDS011;38546;48.170;11.724;2023-10-31T06:50:23;2.77;;;1.97;;
3487;SDS011;38546;48.170;11.724;2023-10-31T06:53:12;2.03;;;1.90;;
3487;SDS011;38546;48.170;11.724;2023-10-31T06:56:01;2.40;;;2.30;;
3487;SDS011;38546;48.170;11.724;2023-10-31T06:58:51;2.50;;;2.13;;
3487;SDS011;38546;48.170;11.724;2023-10-31T07:01:40;5.37;;;3.03;;
3487;SDS011;38546;48.170;11.724;2023-10-31T07:04:29;3.83;;;3.00;;
3487;SDS011;38546;48.170;11.724;2023-10-31T07:07:19;3.50;;;2.63;;
3487;SDS011;38546;48.170;11.724;2023-10-31T07:10:08;2.90;;;2.17;;
3487;SDS011;38546;48.170;11.724;2023-10-31T07:12:58;3.40;;;2.93;;
3487;SDS011;38546;48.170;11.724;2023-10-31T07:15:48;2.70;;;2.50;;
3487;SDS011;38546;48.170;11.724;2023-10-31T07:18:38;5.63;;;2.20;;
3487;SDS011;38546;48.170;11.724;2023-10-31T07:21:26;3.23;;;2.27;;
3487;SDS011;38546;48.170;11.724;2023-10-31T07:24:16;2.37;;;2.03;;
3487;SDS011;38546;48.170;11.724;2023-10-31T07:27:04;1.87;;;1.77;;
3487;SDS011;38546;48.170;11.724;2023-10-31T07:29:54;1.73;;;1.63;;
3487;SDS011;38546;48.170;11.724;2023-10-31T07:32:43;2.10;;;1.90;;
3487;SDS011;38546;48.170;11.724;2023-10-31T07:35:32;2.00;;;1.90;;
3487;SDS011;38546;48.170;11.724;2023-10-31T07:38:21;3.27;;;1.93;;
3487;SDS011;38546;48.170;11.724;2023-10-31T07:41:10;1.90;;;1.70;;
3487;SDS011;38546;48.170;11.724;2023-10-31T07:43:59;3.43;;;2.20;;
3487;SDS011;38546;48.170;11.724;2023-10-31T07:46:48;3.60;;;1.87;;
3487;SDS011;38546;48.170;11.724;2023-10-31T07:49:37;2.40;;;1.93;;
3487;SDS011;38546;48.170;11.724;2023-10-31T07:52:26;5.77;;;1.80;;
3487;SDS011;38546;48.170;11.724;2023-10-31T07:55:16;1.70;;;1.60;;
3487;SDS011;38546;48.170;11.724;2023-10-31T07:58:04;2.03;;;1.70;;
3487;SDS011;38546;48.170;11.724;2023-10-31T08:00:54;3.63;;;2.00;;
3487;SDS011;38546;48.170;11.724;2023-10-31T08:03:45;7.30;;;1.83;;
3487;SDS011;38546;48.170;11.724;2023-10-31T08:06:36;3.53;;;1.50;;
3487;SDS011;38546;48.170;11.724;2023-10-31T08:09:25;4.20;;;1.37;;
3487;SDS011;38546;48.170;11.724;2023-10-31T08:12:15;2.30;;;1.60;;
3487;SDS011;38546;48.170;11.724;2023-10-31T08:15:04;2.33;;;1.27;;
3487;SDS011;38546;48.170;11.724;2023-10-31T08:17:54;1.70;;;1.60;;
3487;SDS011;38546;48.170;11.724;2023-10-31T08:20:43;2.20;;;1.70;;
3487;SDS011;38546;48.170;11.724;2023-10-31T08:23:35;1.33;;;1.33;;
3487;SDS011;38546;48.170;11.724;2023-10-31T08:26:25;1.90;;;1.83;;
3487;SDS011;38546;48.170;11.724;2023-10-31T08:29:14;1.63;;;1.53;;
3487;SDS011;38546;48.170;11.724;2023-10-31T08:32:04;4.40;;;1.40;;
3487;SDS011;38546;48.170;11.724;2023-10-31T08:34:54;1.50;;;1.40;;
3487;SDS011;38546;48.170;11.724;2023-10-31T08:37:45;1.20;;;1.20;;
3487;SDS011;38546;48.170;11.724;2023-10-31T08:40:34;1.60;;;1.50;;
3487;SDS011;38546;48.170;11.724;2023-10-31T08:43:24;4.13;;;1.70;;
3487;SDS011;38546;48.170;11.724;2023-10-31T08:46:13;1.43;;;1.30;;
3487;SDS011;38546;48.170;11.724;2023-10-31T08:49:02;1.30;;;1.20;;
3487;SDS011;38546;48.170;11.724;2023-10-31T08:51:52;1.90;;;1.40;;
3487;SDS011;38546;48.170;11.724;2023-10-31T08:54:41;1.57;;;1.10;;
3487;SDS011;38546;48.170;11.724;2023-10-31T08:57:30;3.10;;;1.67;;
3487;SDS011;38546;48.170;11.724;2023-10-31T09:00:20;1.53;;;1.40;;
3487;SDS011;38546;48.170;11.724;2023-10-31T09:03:09;2.50;;;1.53;;
3487;SDS011;38546;48.170;11.724;2023-10-31T09:05:59;2.80;;;1.50;;
3487;SDS011;38546;48.170;11.724;2023-10-31T09:08:49;3.43;;;1.47;;
3487;SDS011;38546;48.170;11.724;2023-10-31T09:11:38;2.00;;;1.30;;
3487;SDS011;38546;48.170;11.724;2023-10-31T09:14:28;2.70;;;1.50;;
3487;SDS011;38546;48.170;11.724;2023-10-31T09:17:17;1.33;;;1.23;;
3487;SDS011;38546;48.170;11.724;2023-10-31T09:20:07;1.97;;;1.40;;
3487;SDS011;38546;48.170;11.724;2023-10-31T09:22:58;5.17;;;1.67;;
3487;SDS011;38546;48.170;11.724;2023-10-31T09:25:47;1.37;;;1.27;;
3487;SDS011;38546;48.170;11.724;2023-10-31T09:28:37;2.67;;;1.47;;
3487;SDS011;38546;48.170;11.724;2023-10-31T09:31:28;5.80;;;1.30;;
3487;SDS011;38546;48.170;11.724;2023-10-31T09:34:17;1.60;;;1.23;;
3487;SDS011;38546;48.170;11.724;2023-10-31T09:37:07;1.83;;;1.73;;
3487;SDS011;38546;48.170;11.724;2023-10-31T09:39:56;3.27;;;1.10;;
3487;SDS011;38546;48.170;11.724;2023-10-31T09:42:45;1.83;;;1.73;;
3487;SDS011;38546;48.170;11.724;2023-10-31T09:45:35;1.23;;;1.20;;
3487;SDS011;38546;48.170;11.724;2023-10-31T09:48:25;3.03;;;1.40;;
3487;SDS011;38546;48.170;11.724;2023-10-31T09:51:14;1.80;;;1.53;;
3487;SDS011;38546;48.170;11.724;2023-10-31T09:54:04;1.30;;;1.30;;
3487;SDS011;38546;48.170;11.724;2023-10-31T09:56:55;6.10;;;1.80;;
3487;SDS011;38546;48.170;11.724;2023-10-31T09:59:45;2.83;;;1.40;;
3487;SDS011;38546;48.170;11.724;2023-10-31T10:02:34;4.63;;;2.07;;
3487;SDS011;38546;48.170;11.724;2023-10-31T10:05:23;2.47;;;1.60;;
3487;SDS011;38546;48.170;11.724;2023-10-31T10:08:15;2.83;;;1.47;;
3487;SDS011;38546;48.170;11.724;2023-10-31T10:11:05;1.70;;;1.60;;
3487;SDS011;38546;48.170;11.724;2023-10-31T10:13:56;1.77;;;1.63;;
3487;SDS011;38546;48.170;11.724;2023-10-31T10:16:47;3.53;;;1.53;;
3487;SDS011;38546;48.170;11.724;2023-10-31T10:19:36;1.73;;;1.43;;
3487;SDS011;38546;48.170;11.724;2023-10-31T10:22:28;3.13;;;1.20;;
3487;SDS011;38546;48.170;11.724;2023-10-31T10:25:17;1.57;;;1.47;;
3487;SDS011;38546;48.170;11.724;2023-10-31T10:28:07;2.43;;;1.60;;
3487;SDS011;38546;48.170;11.724;2023-10-31T10:31:01;2.40;;;1.30;;
3487;SDS011;38546;48.170;11.724;2023-10-31T10:33:51;1.83;;;1.50;;
3487;SDS011;38546;48.170;11.724;2023-10-31T10:36:40;3.33;;;1.60;;
3487;SDS011;38546;48.170;11.724;2023-10-31T10:39:35;1.87;;;1.57;;
3487;SDS011;38546;48.170;11.724;2023-10-31T10:42:32;2.30;;;1.50;;
3487;SDS011;38546;48.170;11.724;2023-10-31T10:45:23;3.53;;;1.27;;
3487;SDS011;38546;48.170;11.724;2023-10-31T10:48:15;4.20;;;1.30;;
3487;SDS011;38546;48.170;11.724;2023-10-31T10:51:13;2.70;;;0.93;;
3487;SDS011;38546;48.170;11.724;2023-10-31T10:54:15;3.47;;;1.47;;
3487;SDS011;38546;48.170;11.724;2023-10-31T10:59:03;1.90;;;1.50;;
3487;SDS011;38546;48.170;11.724;2023-10-31T11:02:01;1.80;;;1.60;;
3487;SDS011;38546;48.170;11.724;2023-10-31T11:04:55;2.60;;;1.30;;
3487;SDS011;38546;48.170;11.724;2023-10-31T11:07:45;5.00;;;1.63;;
3487;SDS011;38546;48.170;11.724;2023-10-31T11:10:36;1.50;;;1.30;;
3487;SDS011;38546;48.170;11.724;2023-10-31T11:13:27;1.57;;;1.47;;
3487;SDS011;38546;48.170;11.724;2023-10-31T11:16:24;2.30;;;2.13;;
3487;SDS011;38546;48.170;11.724;2023-10-31T11:19:19;1.40;;;1.40;;
3487;SDS011;38546;48.170;11.724;2023-10-31T11:22:09;1.40;;;1.30;;
3487;SDS011;38546;48.170;11.724;2023-10-31T11:24:59;3.60;;;1.43;;
3487;SDS011;38546;48.170;11.724;2023-10-31T11:27:52;2.53;;;1.50;;
3487;SDS011;38546;48.170;11.724;2023-10-31T11:30:42;7.13;;;1.90;;
3487;SDS011;38546;48.170;11.724;2023-10-31T11:33:31;3.73;;;2.03;;
3487;SDS011;38546;48.170;11.724;2023-10-31T11:36:21;5.30;;;1.50;;
3487;SDS011;38546;48.170;11.724;2023-10-31T11:39:12;2.10;;;1.53;;
3487;SDS011;38546;48.170;11.724;2023-10-31T11:42:04;4.23;;;1.90;;
3487;SDS011;38546;48.170;11.724;2023-10-31T11:45:10;1.57;;;1.37;;
3487;SDS011;38546;48.170;11.724;2023-10-31T11:47:59;4.87;;;1.80;;
3487;SDS011;38546;48.170;11.724;2023-10-31T11:50:49;1.30;;;1.20;;
3487;SDS011;38546;48.170;11.724;2023-10-31T11:53:39;3.80;;;1.70;;
3487;SDS011;38546;48.170;11.724;2023-10-31T11:56:28;5.90;;;1.70;;
3487;SDS011;38546;48.170;11.724;2023-10-31T11:59:18;3.57;;;1.40;;
3487;SDS011;38546;48.170;11.724;2023-10-31T12:02:14;4.07;;;1.40;;
3487;SDS011;38546;48.170;11.724;2023-10-31T12:05:10;4.07;;;1.50;;
3487;SDS011;38546;48.170;11.724;2023-10-31T12:08:01;5.13;;;1.73;;
3487;SDS011;38546;48.170;11.724;2023-10-31T12:10:51;1.47;;;1.30;;
3487;SDS011;38546;48.170;11.724;2023-10-31T12:14:02;6.43;;;1.13;;
3487;SDS011;38546;48.170;11.724;2023-10-31T12:16:55;4.20;;;1.40;;
3487;SDS011;38546;48.170;11.724;2023-10-31T12:19:44;2.93;;;1.57;;
3487;SDS011;38546;48.170;11.724;2023-10-31T12:22:34;5.47;;;1.20;;
3487;SDS011;38546;48.170;11.724;2023-10-31T12:25:24;1.27;;;1.20;;
3487;SDS011;38546;48.170;11.724;2023-10-31T12:28:17;1.90;;;1.30;;
3487;SDS011;38546;48.170;11.724;2023-10-31T12:31:10;2.90;;;1.53;;
3487;SDS011;38546;48.170;11.724;2023-10-31T12:34:06;2.10;;;1.00;;
3487;SDS011;38546;48.170;11.724;2023-10-31T12:36:55;1.93;;;1.37;;
3487;SDS011;38546;48.170;11.724;2023-10-31T12:39:48;2.90;;;1.30;;
3487;SDS011;38546;48.170;11.724;2023-10-31T12:42:38;1.40;;;1.40;;
3487;SDS011;38546;48.170;11.724;2023-10-31T12:45:28;2.20;;;1.20;;
3487;SDS011;38546;48.170;11.724;2023-10-31T12:48:23;6.70;;;1.47;;
3487;SDS011;38546;48.170;11.724;2023-10-31T12:51:14;4.27;;;1.60;;
3487;SDS011;38546;48.170;11.724;2023-10-31T12:54:03;2.10;;;1.00;;
3487;SDS011;38546;48.170;11.724;2023-10-31T12:56:52;3.50;;;1.47;;
3487;SDS011;38546;48.170;11.724;2023-10-31T12:59:42;1.50;;;1.37;;
3487;SDS011;38546;48.170;11.724;2023-10-31T13:02:31;1.17;;;1.10;;
3487;SDS011;38546;48.170;11.724;2023-10-31T13:05:24;2.57;;;1.10;;
3487;SDS011;38546;48.170;11.724;2023-10-31T13:08:15;2.50;;;1.40;;
3487;SDS011;38546;48.170;11.724;2023-10-31T13:11:04;1.30;;;1.20;;
3487;SDS011;38546;48.170;11.724;2023-10-31T13:13:57;1.57;;;1.10;;
3487;SDS011;38546;48.170;11.724;2023-10-31T13:16:47;1.23;;;1.10;;
3487;SDS011;38546;48.170;11.724;2023-10-31T13:19:36;1.03;;;1.03;;
3487;SDS011;38546;48.170;11.724;2023-10-31T13:22:25;6.03;;;1.23;;
3487;SDS011;38546;48.170;11.724;2023-10-31T13:25:15;1.33;;;1.13;;
3487;SDS011;38546;48.170;11.724;2023-10-31T13:28:05;1.90;;;1.23;;
3487;SDS011;38546;48.170;11.724;2023-10-31T13:30:55;3.87;;;1.20;;
3487;SDS011;38546;48.170;11.724;2023-10-31T13:33:45;2.30;;;1.07;;
3487;SDS011;38546;48.170;11.724;2023-10-31T13:36:35;2.20;;;1.30;;
3487;SDS011;38546;48.170;11.724;2023-10-31T13:39:25;1.17;;;1.07;;
3487;SDS011;38546;48.170;11.724;2023-10-31T13:42:15;1.97;;;1.40;;
3487;SDS011;38546;48.170;11.724;2023-10-31T13:45:04;1.70;;;1.37;;
3487;SDS011;38546;48.170;11.724;2023-10-31T13:47:54;1.23;;;0.87;;
3487;SDS011;38546;48.170;11.724;2023-10-31T13:50:43;1.57;;;1.10;;
3487;SDS011;38546;48.170;11.724;2023-10-31T13:53:33;1.60;;;1.30;;
3487;SDS011;38546;48.170;11.724;2023-10-31T13:56:22;5.33;;;1.40;;
3487;SDS011;38546;48.170;11.724;2023-10-31T13:59:12;2.37;;;1.60;;
3487;SDS011;38546;48.170;11.724;2023-10-31T14:02:03;1.20;;;1.10;;
3487;SDS011;38546;48.170;11.724;2023-10-31T14:04:52;2.63;;;2.43;;
3487;SDS011;38546;48.170;11.724;2023-10-31T14:07:42;2.73;;;2.53;;
3487;SDS011;38546;48.170;11.724;2023-10-31T14:10:31;3.90;;;2.13;;
3487;SDS011;38546;48.170;11.724;2023-10-31T14:13:20;2.07;;;1.83;;
3487;SDS011;38546;48.170;11.724;2023-10-31T14:16:10;1.40;;;1.30;;
3487;SDS011;38546;48.170;11.724;2023-10-31T14:19:00;2.40;;;1.93;;
3487;SDS011;38546;48.170;11.724;2023-10-31T14:21:53;1.40;;;1.30;;
3487;SDS011;38546;48.170;11.724;2023-10-31T14:24:43;3.33;;;1.60;;
3487;SDS011;38546;48.170;11.724;2023-10-31T14:27:33;1.70;;;1.60;;
3487;SDS011;38546;48.170;11.724;2023-10-31T14:30:22;1.37;;;1.37;;
3487;SDS011;38546;48.170;11.724;2023-10-31T14:33:11;3.23;;;2.30;;
3487;SDS011;38546;48.170;11.724;2023-10-31T14:36:02;5.23;;;2.37;;
3487;SDS011;38546;48.170;11.724;2023-10-31T14:38:53;2.10;;;1.43;;
3487;SDS011;38546;48.170;11.724;2023-10-31T14:41:42;4.73;;;2.63;;
3487;SDS011;38546;48.170;11.724;2023-10-31T14:44:31;1.17;;;1.17;;
3487;SDS011;38546;48.170;11.724;2023-10-31T14:47:21;1.67;;;1.57;;
3487;SDS011;38546;48.170;11.724;2023-10-31T14:50:10;1.27;;;1.10;;
3487;SDS011;38546;48.170;11.724;2023-10-31T14:53:00;2.50;;;2.30;;
3487;SDS011;38546;48.170;11.724;2023-10-31T14:55:49;1.80;;;1.70;;
3487;SDS011;38546;48.170;11.724;2023-10-31T14:58:39;4.87;;;2.93;;
3487;SDS011;38546;48.170;11.724;2023-10-31T15:01:28;3.43;;;2.90;;
3487;SDS011;38546;48.170;11.724;2023-10-31T15:04:18;2.40;;;2.20;;
3487;SDS011;38546;48.170;11.724;2023-10-31T15:07:07;2.47;;;2.27;;
3487;SDS011;38546;48.170;11.724;2023-10-31T15:09:56;4.37;;;2.00;;
3487;SDS011;38546;48.170;11.724;2023-10-31T15:12:46;3.13;;;2.83;;
3487;SDS011;38546;48.170;11.724;2023-10-31T15:15:37;3.57;;;3.00;;
3487;SDS011;38546;48.170;11.724;2023-10-31T15:18:26;6.90;;;3.30;;
3487;SDS011;38546;48.170;11.724;2023-10-31T15:21:16;4.20;;;2.30;;
3487;SDS011;38546;48.170;11.724;2023-10-31T15:24:06;2.60;;;2.40;;
3487;SDS011;38546;48.170;11.724;2023-10-31T15:26:58;3.60;;;3.00;;
3487;SDS011;38546;48.170;11.724;2023-10-31T15:29:47;5.73;;;2.80;;
3487;SDS011;38546;48.170;11.724;2023-10-31T15:32:37;2.30;;;2.20;;
3487;SDS011;38546;48.170;11.724;2023-10-31T15:35:27;2.97;;;2.77;;
3487;SDS011;38546;48.170;11.724;2023-10-31T15:38:16;3.60;;;2.80;;
3487;SDS011;38546;48.170;11.724;2023-10-31T15:41:07;2.70;;;2.50;;
3487;SDS011;38546;48.170;11.724;2023-10-31T15:43:57;5.43;;;1.77;;
3487;SDS011;38546;48.170;11.724;2023-10-31T15:46:46;1.60;;;1.23;;
3487;SDS011;38546;48.170;11.724;2023-10-31T15:49:36;3.03;;;1.67;;
3487;SDS011;38546;48.170;11.724;2023-10-31T15:52:26;1.50;;;1.40;;
3487;SDS011;38546;48.170;11.724;2023-10-31T15:55:16;2.33;;;1.50;;
3487;SDS011;38546;48.170;11.724;2023-10-31T15:58:05;1.70;;;1.60;;
3487;SDS011;38546;48.170;11.724;2023-10-31T16:00:55;1.87;;;1.77;;
3487;SDS011;38546;48.170;11.724;2023-10-31T16:03:44;2.23;;;2.13;;
3487;SDS011;38546;48.170;11.724;2023-10-31T16:06:34;2.47;;;2.30;;
3487;SDS011;38546;48.170;11.724;2023-10-31T16:09:24;2.73;;;2.53;;
3487;SDS011;38546;48.170;11.724;2023-10-31T16:12:14;2.33;;;2.23;;
3487;SDS011;38546;48.170;11.724;2023-10-31T16:15:05;2.80;;;2.60;;
3487;SDS011;38546;48.170;11.724;2023-10-31T16:17:55;4.03;;;3.00;;
3487;SDS011;38546;48.170;11.724;2023-10-31T16:20:44;7.17;;;3.57;;
3487;SDS011;38546;48.170;11.724;2023-10-31T16:23:35;5.23;;;2.70;;
3487;SDS011;38546;48.170;11.724;2023-10-31T16:26:24;3.43;;;3.13;;
3487;SDS011;38546;48.170;11.724;2023-10-31T16:29:13;2.83;;;2.63;;
3487;SDS011;38546;48.170;11.724;2023-10-31T16:32:04;2.77;;;2.57;;
3487;SDS011;38546;48.170;11.724;2023-10-31T16:34:54;2.20;;;2.10;;
3487;SDS011;38546;48.170;11.724;2023-10-31T16:37:43;2.90;;;2.43;;
3487;SDS011;38546;48.170;11.724;2023-10-31T16:40:33;2.80;;;2.50;;
3487;SDS011;38546;48.170;11.724;2023-10-31T16:43:22;3.60;;;3.30;;
3487;SDS011;38546;48.170;11.724;2023-10-31T16:46:11;5.50;;;4.10;;
3487;SDS011;38546;48.170;11.724;2023-10-31T16:49:00;4.47;;;4.07;;
3487;SDS011;38546;48.170;11.724;2023-10-31T16:51:50;7.90;;;4.17;;
3487;SDS011;38546;48.170;11.724;2023-10-31T16:54:39;4.43;;;3.30;;
3487;SDS011;38546;48.170;11.724;2023-10-31T16:57:29;3.20;;;2.60;;
3487;SDS011;38546;48.170;11.724;2023-10-31T17:00:18;2.70;;;2.50;;
3487;SDS011;38546;48.170;11.724;2023-10-31T17:03:07;2.93;;;2.27;;
3487;SDS011;38546;48.170;11.724;2023-10-31T17:06:00;3.00;;;2.70;;